Time;durP1;ratioP1;P1;durP2;ratioP2;P2;SDS_P1;SDS_P2;PMS_P1;PMS_P2;Temp;Humidity;BMP_temperature;BMP_pressure;BME280_temperature;BME280_humidity;BME280_pressure;Samples;Min_cycle;Max_cycle;Signal;HPM_P1;HPM_P2
2020/12/06 00:00:22;;;;;;;30.67;22.70;;;5.30;99.90;;;;;;5046437;28;20204;-79
2020/12/06 00:02:48;;;;;;;29.05;21.38;;;5.30;99.90;;;;;;5052882;28;20843;-79
2020/12/06 00:05:15;;;;;;;28.95;20.20;;;5.20;99.90;;;;;;5057353;28;20276;-77
2020/12/06 00:07:42;;;;;;;25.42;21.40;;;5.20;99.90;;;;;;5065166;28;20265;-79
2020/12/06 00:10:09;;;;;;;29.75;22.65;;;5.20;99.90;;;;;;5064528;28;20204;-79
2020/12/06 00:12:36;;;;;;;23.20;19.65;;;5.10;99.90;;;;;;5067318;28;20238;-78
2020/12/06 00:15:06;;;;;;;26.80;23.40;;;5.10;99.90;;;;;;5071871;28;20671;-77
2020/12/06 00:17:33;;;;;;;27.27;20.90;;;5.10;99.90;;;;;;5071170;28;20199;-76
2020/12/06 00:20:00;;;;;;;30.55;22.73;;;5.10;99.90;;;;;;5070412;28;20202;-76
2020/12/06 00:22:27;;;;;;;27.88;21.40;;;5.10;99.90;;;;;;5070506;28;20272;-79
2020/12/06 00:24:53;;;;;;;27.75;21.88;;;5.00;99.90;;;;;;5073400;28;20227;-78
2020/12/06 00:27:20;;;;;;;31.02;22.33;;;5.00;99.90;;;;;;5071340;28;20245;-79
2020/12/06 00:29:46;;;;;;;23.50;20.88;;;5.00;99.90;;;;;;5069093;28;20223;-78
2020/12/06 00:32:13;;;;;;;29.75;21.95;;;5.00;99.90;;;;;;5068536;28;20226;-77
2020/12/06 00:34:40;;;;;;;23.88;20.05;;;5.00;99.90;;;;;;5064800;28;20318;-77
2020/12/06 00:37:06;;;;;;;29.90;23.35;;;4.90;99.90;;;;;;5069925;28;20207;-78
2020/12/06 00:39:33;;;;;;;28.85;22.42;;;4.80;99.90;;;;;;5072221;28;20223;-79
2020/12/06 00:41:59;;;;;;;29.20;24.08;;;4.80;99.90;;;;;;5067090;28;20610;-76
2020/12/06 00:44:26;;;;;;;23.98;20.08;;;4.70;99.90;;;;;;5065654;28;20246;-79
2020/12/06 00:46:52;;;;;;;27.45;21.48;;;4.80;99.90;;;;;;5065731;28;20195;-78
2020/12/06 00:49:20;;;;;;;26.67;20.20;;;4.80;99.90;;;;;;5064336;28;20219;-81
2020/12/06 00:51:49;;;;;;;23.92;20.60;;;4.70;99.90;;;;;;5064545;28;20203;-78
2020/12/06 00:54:16;;;;;;;25.08;20.23;;;4.80;99.90;;;;;;5066036;28;20329;-77
2020/12/06 00:56:42;;;;;;;28.50;21.75;;;4.70;99.90;;;;;;5061071;28;20532;-78
2020/12/06 00:59:09;;;;;;;26.15;20.15;;;4.70;99.90;;;;;;5052753;28;20192;-76
2020/12/06 01:01:40;;;;;;;26.15;22.52;;;4.70;99.90;;;;;;5052976;28;20204;-78
2020/12/06 01:04:06;;;;;;;27.50;22.23;;;4.70;99.90;;;;;;5070427;28;20258;-77
2020/12/06 01:06:34;;;;;;;27.50;23.00;;;4.60;99.90;;;;;;5055058;28;20234;-77
2020/12/06 01:09:00;;;;;;;30.58;22.33;;;4.60;99.90;;;;;;5054172;28;20235;-77
2020/12/06 01:11:27;;;;;;;28.52;22.80;;;4.60;99.90;;;;;;5048484;28;20233;-77
2020/12/06 01:13:53;;;;;;;28.30;23.27;;;4.60;99.90;;;;;;5047287;28;20228;-77
2020/12/06 01:16:20;;;;;;;26.83;20.88;;;4.60;99.90;;;;;;5053232;28;20233;-77
2020/12/06 01:18:46;;;;;;;24.67;21.55;;;4.70;99.90;;;;;;5053165;28;20200;-78
2020/12/06 01:21:13;;;;;;;27.98;20.98;;;4.70;99.90;;;;;;5050126;28;20204;-78
2020/12/06 01:23:41;;;;;;;24.60;21.85;;;4.70;99.90;;;;;;5051202;28;20253;-78
2020/12/06 01:26:10;;;;;;;26.92;20.55;;;4.70;99.90;;;;;;5050914;28;20680;-78
2020/12/06 01:28:36;;;;;;;27.67;21.27;;;4.70;99.90;;;;;;5044728;28;20220;-78
2020/12/06 01:31:03;;;;;;;28.92;22.85;;;4.70;99.90;;;;;;5046058;28;20226;-77
2020/12/06 01:33:29;;;;;;;28.33;23.50;;;4.70;99.90;;;;;;5051752;28;20250;-77
2020/12/06 01:35:56;;;;;;;25.17;21.63;;;4.70;99.90;;;;;;5057391;28;20234;-77
2020/12/06 01:38:22;;;;;;;25.20;21.70;;;4.90;99.90;;;;;;5063469;28;20229;-77
2020/12/06 01:40:50;;;;;;;25.50;21.65;;;4.70;99.90;;;;;;5064477;28;20229;-78
2020/12/06 01:43:16;;;;;;;23.10;19.85;;;4.70;99.90;;;;;;5066265;28;20245;-76
2020/12/06 01:45:43;;;;;;;22.17;19.35;;;4.70;99.90;;;;;;5066191;28;20210;-78
2020/12/06 01:48:10;;;;;;;27.90;21.67;;;4.70;99.90;;;;;;5065138;28;20592;-78
2020/12/06 01:50:37;;;;;;;26.45;22.10;;;4.70;99.90;;;;;;5065028;28;20238;-79
2020/12/06 01:53:04;;;;;;;22.92;19.20;;;4.60;99.90;;;;;;5063722;28;20208;-76
2020/12/06 01:55:31;;;;;;;23.63;20.48;;;4.70;99.90;;;;;;5069549;28;20211;-77
2020/12/06 01:58:03;;;;;;;23.10;20.60;;;4.70;99.90;;;;;;5072837;28;20233;-77
2020/12/06 02:00:30;;;;;;;25.88;20.25;;;4.70;99.90;;;;;;5066592;28;20207;-79
2020/12/06 02:02:57;;;;;;;25.48;21.25;;;4.80;99.90;;;;;;5071500;28;20195;-74
2020/12/06 02:08:13;;;;;;;25.13;20.17;;;4.80;99.90;;;;;;5062660;28;20244;-88
2020/12/06 02:11:12;;;;;;;30.67;20.45;;;4.80;99.90;;;;;;5074870;28;20183;-88
2020/12/06 02:20:32;;;;;;;24.42;20.17;;;4.80;99.90;;;;;;5056813;28;20267;-86
2020/12/06 02:23:40;;;;;;;23.27;19.20;;;4.80;99.90;;;;;;5058029;28;20203;-88
2020/12/06 02:26:28;;;;;;;25.73;21.80;;;4.80;99.90;;;;;;5056941;28;20187;-88
2020/12/06 02:29:16;;;;;;;23.70;20.58;;;4.80;99.90;;;;;;5057196;28;20230;-88
2020/12/06 02:31:44;;;;;;;27.20;20.45;;;4.80;99.90;;;;;;5056491;28;20180;-88
2020/12/06 02:34:14;;;;;;;26.80;22.52;;;4.90;99.90;;;;;;5056850;28;20224;-88
2020/12/06 02:36:41;;;;;;;21.23;18.15;;;4.90;99.90;;;;;;5056987;28;20177;-87
2020/12/06 02:39:11;;;;;;;23.95;19.33;;;4.90;99.90;;;;;;5056397;28;20302;-87
2020/12/06 02:41:44;;;;;;;23.65;18.55;;;4.80;99.90;;;;;;5045706;28;20224;-88
2020/12/06 02:44:13;;;;;;;24.92;21.00;;;4.80;99.90;;;;;;5038297;28;20224;-88
2020/12/06 02:46:44;;;;;;;24.65;21.30;;;4.90;99.90;;;;;;5038653;28;20295;-87
2020/12/06 02:49:11;;;;;;;24.45;20.55;;;4.80;99.90;;;;;;5037477;28;20231;-87
2020/12/06 02:51:38;;;;;;;26.50;20.10;;;4.80;99.90;;;;;;5037576;28;20204;-88
2020/12/06 02:54:06;;;;;;;24.52;20.98;;;4.80;99.90;;;;;;5052547;28;20218;-89
2020/12/06 02:56:34;;;;;;;24.45;19.75;;;4.80;99.90;;;;;;5043516;28;20185;-87
2020/12/06 02:59:05;;;;;;;23.67;20.63;;;4.90;99.90;;;;;;5038096;28;20270;-89
2020/12/06 03:01:33;;;;;;;23.95;19.02;;;4.80;99.90;;;;;;5037413;28;20204;-89
2020/12/06 03:04:03;;;;;;;25.08;20.73;;;4.80;99.90;;;;;;5045257;28;20219;-88
2020/12/06 03:06:30;;;;;;;23.63;18.75;;;4.80;99.90;;;;;;5060908;28;20261;-89
2020/12/06 03:08:59;;;;;;;23.10;20.30;;;4.80;99.90;;;;;;5067661;28;20226;-88
2020/12/06 03:11:27;;;;;;;22.52;18.85;;;4.70;99.90;;;;;;5076023;28;20199;-89
2020/12/06 03:13:55;;;;;;;27.42;20.52;;;4.70;99.90;;;;;;5071500;28;20254;-89
2020/12/06 03:16:34;;;;;;;23.95;19.65;;;4.70;99.90;;;;;;5072790;28;20215;-89
2020/12/06 03:24:41;;;;;;;26.63;21.63;;;4.70;99.90;;;;;;5075010;28;20219;-87
2020/12/06 03:27:10;;;;;;;27.65;20.77;;;4.70;99.90;;;;;;5064705;28;20215;-88
2020/12/06 03:29:43;;;;;;;24.50;20.23;;;4.70;99.90;;;;;;5062783;28;20210;-88
2020/12/06 03:32:13;;;;;;;21.73;19.33;;;4.80;99.90;;;;;;5063492;28;20247;-87
2020/12/06 03:34:42;;;;;;;22.25;19.67;;;4.80;99.90;;;;;;5061670;28;20232;-87
2020/12/06 03:39:55;;;;;;;21.65;18.83;;;4.80;99.90;;;;;;5074972;28;20231;-88
2020/12/06 03:42:22;;;;;;;22.08;18.50;;;4.80;99.90;;;;;;5073886;28;20199;-88
2020/12/06 03:44:59;;;;;;;27.20;21.45;;;4.80;99.90;;;;;;5071913;28;20245;-88
2020/12/06 03:47:29;;;;;;;23.50;18.63;;;4.80;99.90;;;;;;5078448;28;20203;-88
2020/12/06 03:50:07;;;;;;;24.63;21.23;;;4.80;99.90;;;;;;5079899;28;20201;-87
2020/12/06 03:52:36;;;;;;;23.23;19.70;;;4.90;99.90;;;;;;5079496;28;20192;-88
2020/12/06 03:55:06;;;;;;;21.63;18.10;;;4.90;99.90;;;;;;5078741;28;20303;-87
2020/12/06 03:57:37;;;;;;;23.90;20.05;;;4.90;99.90;;;;;;5079159;28;20184;-88
2020/12/06 04:00:09;;;;;;;18.65;15.60;;;4.90;99.90;;;;;;5078981;28;20258;-89
2020/12/06 04:02:44;;;;;;;21.50;18.75;;;5.00;99.90;;;;;;5078980;28;20207;-88
2020/12/06 04:05:20;;;;;;;24.25;21.63;;;4.90;99.90;;;;;;5059504;28;20227;-88
2020/12/06 04:07:50;;;;;;;28.05;21.52;;;4.90;99.90;;;;;;5054777;28;20544;-88
2020/12/06 04:10:19;;;;;;;26.63;19.77;;;5.00;99.90;;;;;;5052266;28;20204;-86
2020/12/06 04:12:48;;;;;;;24.45;20.27;;;5.00;99.90;;;;;;5044389;28;20258;-87
2020/12/06 04:15:19;;;;;;;24.48;18.42;;;5.10;99.90;;;;;;5046786;28;20224;-87
2020/12/06 04:17:48;;;;;;;22.73;18.10;;;5.20;99.90;;;;;;5055279;28;20204;-88
2020/12/06 04:20:16;;;;;;;22.20;18.30;;;5.20;99.90;;;;;;5055321;28;20247;-89
2020/12/06 04:22:52;;;;;;;20.73;17.75;;;5.30;99.90;;;;;;5054317;28;20208;-89
2020/12/06 04:25:19;;;;;;;23.88;19.80;;;5.30;99.90;;;;;;5056044;28;20227;-88
2020/12/06 04:27:47;;;;;;;24.27;20.20;;;5.30;99.90;;;;;;5056320;28;20250;-88
2020/12/06 04:30:14;;;;;;;27.45;21.20;;;5.30;99.90;;;;;;5055721;28;20196;-88
2020/12/06 04:32:42;;;;;;;28.52;21.65;;;5.40;99.90;;;;;;5056278;28;20268;-88
2020/12/06 04:35:11;;;;;;;22.10;18.80;;;5.40;99.90;;;;;;5056310;28;20215;-88
2020/12/06 04:37:40;;;;;;;21.30;17.85;;;5.40;99.90;;;;;;5057343;28;20200;-88
2020/12/06 04:40:08;;;;;;;20.75;18.42;;;5.40;99.90;;;;;;5057560;28;20223;-87
2020/12/06 04:42:37;;;;;;;22.23;18.83;;;5.50;99.90;;;;;;5057540;28;20184;-87
2020/12/06 04:45:04;;;;;;;21.88;18.00;;;5.50;99.90;;;;;;5057988;28;20283;-86
2020/12/06 04:47:49;;;;;;;22.70;18.17;;;5.50;99.90;;;;;;5057477;28;20204;-88
2020/12/06 04:50:26;;;;;;;23.90;19.48;;;5.50;99.90;;;;;;5058229;28;20220;-87
2020/12/06 04:52:58;;;;;;;24.83;19.30;;;5.40;99.90;;;;;;5055139;28;20598;-87
2020/12/06 04:55:31;;;;;;;21.48;19.23;;;5.50;99.90;;;;;;5056201;28;20235;-87
2020/12/06 04:57:59;;;;;;;24.98;21.20;;;5.50;99.90;;;;;;5056543;28;20198;-86
2020/12/06 05:00:36;;;;;;;28.63;22.02;;;5.50;99.90;;;;;;5057290;28;20220;-88
2020/12/06 05:03:09;;;;;;;23.65;19.58;;;5.50;99.90;;;;;;5055869;28;20211;-88
2020/12/06 05:05:40;;;;;;;22.48;18.85;;;5.50;99.90;;;;;;5056368;28;20243;-87
2020/12/06 05:08:11;;;;;;;25.90;21.13;;;5.50;99.90;;;;;;5056848;28;20197;-87
2020/12/06 05:10:46;;;;;;;24.17;19.98;;;5.50;99.90;;;;;;5049826;28;20212;-88
2020/12/06 05:13:15;;;;;;;23.70;19.45;;;5.50;99.90;;;;;;5038761;28;20200;-88
2020/12/06 05:18:33;;;;;;;23.85;20.67;;;5.50;99.90;;;;;;5051585;28;20251;-89
2020/12/06 05:21:08;;;;;;;27.13;21.17;;;5.50;99.90;;;;;;5040767;28;20196;-88
2020/12/06 05:23:35;;;;;;;22.20;19.75;;;5.50;99.90;;;;;;5038775;28;20222;-86
2020/12/06 05:28:47;;;;;;;22.90;18.88;;;5.40;99.90;;;;;;5039160;28;20196;-88
2020/12/06 05:31:15;;;;;;;26.35;21.38;;;5.30;99.90;;;;;;5039297;28;20204;-88
2020/12/06 05:33:44;;;;;;;24.63;21.98;;;5.30;99.90;;;;;;5038720;28;21060;-88
2020/12/06 05:36:14;;;;;;;27.85;21.95;;;5.30;99.90;;;;;;5052566;28;20210;-88
2020/12/06 05:38:42;;;;;;;26.63;22.52;;;5.30;99.90;;;;;;5059447;28;20223;-89
2020/12/06 05:41:11;;;;;;;27.17;21.40;;;5.30;99.90;;;;;;5067173;28;20649;-88
2020/12/06 05:43:41;;;;;;;29.50;23.88;;;5.30;99.90;;;;;;5059648;28;20286;-87
2020/12/06 05:46:09;;;;;;;24.75;20.00;;;5.30;99.90;;;;;;5064385;28;20234;-88
2020/12/06 05:48:46;;;;;;;32.25;23.05;;;5.20;99.90;;;;;;5060804;28;20206;-87
2020/12/06 05:51:17;;;;;;;25.83;22.73;;;5.20;99.90;;;;;;5062427;28;20275;-88
2020/12/06 05:53:46;;;;;;;28.63;22.27;;;5.20;99.90;;;;;;5062530;28;20571;-87
2020/12/06 05:56:16;;;;;;;27.90;22.80;;;5.20;99.90;;;;;;5063202;28;20207;-88
2020/12/06 05:58:45;;;;;;;27.70;22.90;;;5.20;99.90;;;;;;5042515;28;20282;-88
2020/12/06 06:01:13;;;;;;;28.38;23.60;;;5.10;99.90;;;;;;5039648;28;20611;-88
2020/12/06 06:03:43;;;;;;;30.95;24.17;;;5.10;99.90;;;;;;5053595;28;20222;-88
2020/12/06 06:06:25;;;;;;;23.45;20.52;;;5.00;99.90;;;;;;5058027;28;20216;-88
2020/12/06 06:08:54;;;;;;;28.33;23.13;;;5.00;99.90;;;;;;5039012;28;20553;-87
2020/12/06 06:11:27;;;;;;;26.48;22.70;;;4.90;99.90;;;;;;5039393;28;20208;-87
2020/12/06 06:14:01;;;;;;;29.08;22.50;;;4.90;99.90;;;;;;5039178;28;20228;-87
2020/12/06 06:16:35;;;;;;;30.38;24.05;;;4.90;99.90;;;;;;5039080;28;20207;-87
2020/12/06 06:19:06;;;;;;;25.25;21.13;;;4.90;99.90;;;;;;5038986;28;20230;-87
2020/12/06 06:21:50;;;;;;;27.00;21.05;;;4.90;99.90;;;;;;5044263;28;20291;-87
2020/12/06 06:24:33;;;;;;;26.60;23.00;;;4.90;99.90;;;;;;5038509;28;20235;-88
2020/12/06 06:27:01;;;;;;;30.85;22.88;;;4.90;99.90;;;;;;5039251;28;20203;-87
2020/12/06 06:29:31;;;;;;;31.38;23.95;;;4.90;99.90;;;;;;5035485;28;20291;-87
2020/12/06 06:31:58;;;;;;;25.98;22.42;;;4.90;99.90;;;;;;5038251;28;20188;-87
2020/12/06 06:34:29;;;;;;;25.15;20.77;;;4.90;99.90;;;;;;5066847;28;20306;-87
2020/12/06 06:37:13;;;;;;;28.95;23.10;;;4.90;99.90;;;;;;5075764;28;20208;-89
2020/12/06 06:39:42;;;;;;;32.22;23.20;;;4.90;99.90;;;;;;5078388;28;20298;-88
2020/12/06 06:42:16;;;;;;;33.92;26.73;;;4.90;99.90;;;;;;5062661;28;20215;-88
2020/12/06 06:44:48;;;;;;;31.30;23.17;;;4.90;99.90;;;;;;5060367;28;20227;-88
2020/12/06 06:47:22;;;;;;;27.58;24.63;;;4.90;99.90;;;;;;5060636;28;20203;-88
2020/12/06 06:49:54;;;;;;;30.13;24.20;;;4.90;99.90;;;;;;5060746;28;20195;-87
2020/12/06 06:52:25;;;;;;;30.98;24.50;;;4.80;99.90;;;;;;5060612;28;20286;-87
2020/12/06 06:54:54;;;;;;;30.48;23.88;;;4.90;99.90;;;;;;5061352;28;20254;-87
2020/12/06 06:57:27;;;;;;;28.30;22.50;;;4.90;99.90;;;;;;5062185;28;20229;-88
2020/12/06 06:59:56;;;;;;;30.30;23.60;;;4.90;99.90;;;;;;5070965;28;20306;-88
2020/12/06 07:02:56;;;;;;;28.50;23.98;;;4.90;99.90;;;;;;5075323;28;20298;-87
2020/12/06 07:05:26;;;;;;;29.05;22.83;;;4.80;99.90;;;;;;5060469;28;20293;-87
2020/12/06 07:07:57;;;;;;;28.67;21.83;;;4.90;99.90;;;;;;5050242;28;20207;-87
2020/12/06 07:10:25;;;;;;;27.70;22.75;;;5.00;99.90;;;;;;5050227;28;20258;-88
2020/12/06 07:12:55;;;;;;;25.88;21.48;;;5.00;99.90;;;;;;5045811;28;20208;-88
2020/12/06 07:15:24;;;;;;;27.13;23.23;;;5.00;99.90;;;;;;5046386;28;20220;-88
2020/12/06 07:17:52;;;;;;;33.20;25.25;;;5.10;99.90;;;;;;5045445;28;20210;-88
2020/12/06 07:20:23;;;;;;;33.83;23.27;;;5.10;99.90;;;;;;5048667;28;20590;-87
2020/12/06 07:22:52;;;;;;;34.58;25.73;;;5.20;99.90;;;;;;5050312;28;20242;-88
2020/12/06 07:25:32;;;;;;;25.35;22.02;;;5.20;99.90;;;;;;5049808;28;20248;-87
2020/12/06 07:28:07;;;;;;;28.98;25.02;;;5.20;99.90;;;;;;5040182;28;20565;-88
2020/12/06 07:33:16;;;;;;;25.90;21.75;;;5.20;99.90;;;;;;5059350;28;20206;-88
2020/12/06 07:35:43;;;;;;;27.17;23.77;;;5.20;99.90;;;;;;5067386;28;20251;-88
2020/12/06 07:38:16;;;;;;;33.03;26.40;;;5.20;99.90;;;;;;5076260;28;20263;-87
2020/12/06 07:40:48;;;;;;;29.45;25.23;;;5.20;99.90;;;;;;5062190;28;20270;-89
2020/12/06 07:43:27;;;;;;;31.88;26.00;;;5.20;99.90;;;;;;5060823;28;20210;-88
2020/12/06 07:50:12;;;;;;;35.63;26.48;;;5.30;99.90;;;;;;5059861;28;20563;-88
2020/12/06 07:58:38;;;;;;;33.47;26.20;;;5.40;99.90;;;;;;5064109;28;20193;-90
2020/12/06 08:01:25;;;;;;;33.33;25.67;;;5.40;99.90;;;;;;5057005;28;20219;-88
2020/12/06 08:03:55;;;;;;;40.25;28.13;;;5.40;99.90;;;;;;5073668;22;20283;-79
2020/12/06 08:06:23;;;;;;;38.30;28.50;;;5.50;99.90;;;;;;5031994;28;20209;-78
2020/12/06 08:08:54;;;;;;;36.67;27.90;;;5.50;99.90;;;;;;5023786;28;20228;-78
2020/12/06 08:11:20;;;;;;;37.58;28.30;;;5.50;99.90;;;;;;5024790;28;20209;-79
2020/12/06 08:13:50;;;;;;;35.38;27.92;;;5.50;99.90;;;;;;5024098;28;20233;-80
2020/12/06 08:16:18;;;;;;;36.63;28.60;;;5.50;99.90;;;;;;5024084;28;20284;-79
2020/12/06 08:18:45;;;;;;;36.55;28.17;;;5.60;99.90;;;;;;5023502;28;20218;-78
2020/12/06 08:21:12;;;;;;;39.42;29.10;;;5.60;99.90;;;;;;5023743;28;20200;-77
2020/12/06 08:23:40;;;;;;;39.38;29.40;;;5.70;99.90;;;;;;5024512;28;20213;-77
2020/12/06 08:26:07;;;;;;;32.60;26.33;;;5.70;99.90;;;;;;5027463;28;20236;-80
2020/12/06 08:28:34;;;;;;;39.35;28.58;;;5.70;99.90;;;;;;5028054;28;20177;-78
2020/12/06 08:31:00;;;;;;;39.88;28.50;;;5.70;99.90;;;;;;5025554;28;20223;-80
2020/12/06 08:33:28;;;;;;;33.35;25.55;;;5.80;99.90;;;;;;5029875;28;20209;-78
2020/12/06 08:35:56;;;;;;;38.78;26.92;;;5.80;99.90;;;;;;5045123;28;20213;-78
2020/12/06 08:38:24;;;;;;;39.75;29.30;;;5.80;99.90;;;;;;5039153;28;20213;-78
2020/12/06 08:41:02;;;;;;;36.70;29.10;;;5.80;99.90;;;;;;5023898;28;20235;-80
2020/12/06 08:43:49;;;;;;;35.80;28.10;;;5.80;99.90;;;;;;5023295;28;20227;-80
2020/12/06 08:46:18;;;;;;;36.13;28.73;;;5.80;99.90;;;;;;5023842;28;20654;-83
2020/12/06 08:48:45;;;;;;;37.72;28.38;;;5.80;99.90;;;;;;5023637;28;20292;-78
2020/12/06 08:51:32;;;;;;;39.35;29.23;;;5.90;99.90;;;;;;5025382;28;20429;-79
2020/12/06 08:54:00;;;;;;;38.92;28.58;;;5.90;99.90;;;;;;5023328;28;20260;-80
2020/12/06 08:56:29;;;;;;;49.33;31.30;;;5.80;99.90;;;;;;5029105;28;20181;-81
2020/12/06 08:59:00;;;;;;;44.50;33.85;;;5.80;99.90;;;;;;5024643;28;20216;-79
2020/12/06 09:01:28;;;;;;;42.15;30.90;;;5.80;99.90;;;;;;5023596;28;20189;-80
2020/12/06 09:03:54;;;;;;;35.22;28.90;;;5.80;99.90;;;;;;5036693;28;20196;-78
2020/12/06 09:06:21;;;;;;;44.65;33.35;;;5.80;99.90;;;;;;5039472;28;20182;-76
2020/12/06 09:08:48;;;;;;;37.50;28.75;;;5.90;99.90;;;;;;5039444;28;20204;-78
2020/12/06 09:11:16;;;;;;;43.28;30.67;;;5.90;99.90;;;;;;5039571;28;20181;-77
2020/12/06 09:13:43;;;;;;;43.10;33.50;;;5.90;99.90;;;;;;5039295;28;20189;-75
2020/12/06 09:16:10;;;;;;;46.90;35.78;;;5.90;99.90;;;;;;5039073;28;20173;-77
2020/12/06 09:18:37;;;;;;;51.50;35.38;;;5.90;99.90;;;;;;5036873;28;20205;-78
2020/12/06 09:21:04;;;;;;;44.28;33.65;;;5.90;99.90;;;;;;5031374;28;20235;-79
2020/12/06 09:23:31;;;;;;;41.17;31.50;;;5.90;99.90;;;;;;5029066;28;20239;-78
2020/12/06 09:26:00;;;;;;;44.55;32.75;;;5.90;99.90;;;;;;5029886;28;20228;-78
2020/12/06 09:28:27;;;;;;;44.25;34.40;;;5.90;99.90;;;;;;5031083;28;20209;-78
2020/12/06 09:30:54;;;;;;;47.17;34.30;;;6.00;99.90;;;;;;5030211;28;20228;-78
2020/12/06 09:33:22;;;;;;;39.30;31.65;;;6.00;99.90;;;;;;5031353;28;21079;-77
2020/12/06 09:35:49;;;;;;;39.25;29.23;;;6.00;99.90;;;;;;5052390;28;20200;-76
2020/12/06 09:38:16;;;;;;;45.35;32.40;;;6.10;99.90;;;;;;5058094;28;20235;-78
2020/12/06 09:40:43;;;;;;;44.78;32.78;;;6.10;99.90;;;;;;5058166;28;20180;-77
2020/12/06 09:43:12;;;;;;;45.08;33.42;;;6.10;99.90;;;;;;5058067;28;20188;-76
2020/12/06 09:45:40;;;;;;;44.65;33.00;;;6.10;99.90;;;;;;5057773;28;20212;-76
2020/12/06 09:48:07;;;;;;;46.58;34.08;;;6.20;99.90;;;;;;5058265;28;20210;-77
2020/12/06 09:50:33;;;;;;;43.28;31.92;;;6.20;99.90;;;;;;5055538;28;20227;-79
2020/12/06 09:53:01;;;;;;;47.65;35.88;;;6.20;99.90;;;;;;5049271;28;20205;-78
2020/12/06 09:55:27;;;;;;;46.67;34.28;;;6.20;99.90;;;;;;5036863;28;20226;-77
2020/12/06 09:57:54;;;;;;;48.10;33.75;;;6.20;99.90;;;;;;5027086;28;20205;-77
2020/12/06 10:00:21;;;;;;;47.83;33.42;;;6.20;99.90;;;;;;5026641;28;20711;-79
2020/12/06 10:02:48;;;;;;;44.38;33.88;;;6.20;99.90;;;;;;5029547;28;20188;-78
2020/12/06 10:05:14;;;;;;;43.78;33.60;;;6.30;99.90;;;;;;5025674;28;20232;-78
2020/12/06 10:07:41;;;;;;;50.90;34.50;;;6.20;99.90;;;;;;5026196;28;20236;-78
2020/12/06 10:10:09;;;;;;;42.28;31.42;;;6.30;99.90;;;;;;5026196;28;20228;-80
2020/12/06 10:12:36;;;;;;;51.08;35.25;;;6.30;99.90;;;;;;5026683;28;20205;-79
2020/12/06 10:15:04;;;;;;;46.88;34.28;;;6.20;99.90;;;;;;5030196;28;20247;-78
2020/12/06 10:17:38;;;;;;;55.38;38.03;;;6.40;99.90;;;;;;5037733;28;20253;-78
2020/12/06 10:20:05;;;;;;;54.38;37.83;;;6.40;99.90;;;;;;5042321;28;20219;-78
2020/12/06 10:22:31;;;;;;;54.13;36.15;;;6.40;99.90;;;;;;5042619;28;20201;-78
2020/12/06 10:24:58;;;;;;;57.00;36.97;;;6.40;99.90;;;;;;5042435;28;20228;-76
2020/12/06 10:27:25;;;;;;;52.22;37.72;;;6.40;99.90;;;;;;5042124;28;20215;-77
2020/12/06 10:29:51;;;;;;;46.75;33.75;;;6.50;99.90;;;;;;5041952;28;20201;-77
2020/12/06 10:32:18;;;;;;;50.47;36.85;;;6.40;99.90;;;;;;5042258;28;20212;-78
2020/12/06 10:34:45;;;;;;;55.28;36.97;;;6.40;99.90;;;;;;5041289;28;20216;-77
2020/12/06 10:37:11;;;;;;;51.75;35.92;;;6.40;99.90;;;;;;5057450;28;20207;-77
2020/12/06 10:39:38;;;;;;;56.45;40.75;;;6.40;99.90;;;;;;5036941;28;20209;-79
2020/12/06 10:42:04;;;;;;;46.70;34.45;;;6.40;99.90;;;;;;5034591;28;20236;-80
2020/12/06 10:44:31;;;;;;;51.35;36.67;;;6.40;99.90;;;;;;5033956;28;20225;-78
2020/12/06 10:46:58;;;;;;;52.00;38.90;;;6.40;99.90;;;;;;5034414;28;20193;-78
2020/12/06 10:49:25;;;;;;;47.53;33.80;;;6.50;99.90;;;;;;5033963;28;20219;-77
2020/12/06 10:51:52;;;;;;;50.83;35.58;;;6.60;99.90;;;;;;5030581;28;20217;-78
2020/12/06 10:54:19;;;;;;;48.63;34.58;;;6.80;99.90;;;;;;5028961;28;20226;-80
2020/12/06 10:56:45;;;;;;;57.00;39.83;;;6.80;99.90;;;;;;5033510;28;20212;-81
2020/12/06 10:59:12;;;;;;;53.65;36.50;;;6.80;99.90;;;;;;5032292;28;20232;-80
2020/12/06 11:01:38;;;;;;;59.35;38.85;;;6.80;99.90;;;;;;5029966;28;20300;-79
2020/12/06 11:04:06;;;;;;;57.92;39.67;;;6.80;99.90;;;;;;5020439;28;20237;-77
2020/12/06 11:06:33;;;;;;;53.58;38.25;;;6.80;99.90;;;;;;5030438;28;20861;-81
2020/12/06 11:09:01;;;;;;;63.85;40.70;;;6.80;99.90;;;;;;5028145;28;20747;-80
2020/12/06 11:11:27;;;;;;;57.15;39.22;;;6.70;99.90;;;;;;5026025;28;20212;-80
2020/12/06 11:13:54;;;;;;;67.03;44.25;;;6.70;99.90;;;;;;5016123;28;20201;-82
2020/12/06 11:16:21;;;;;;;69.00;42.95;;;6.80;99.90;;;;;;5008900;28;20206;-82
2020/12/06 11:18:50;;;;;;;60.47;40.95;;;6.70;99.90;;;;;;5011923;28;20202;-79
2020/12/06 11:21:18;;;;;;;63.90;41.22;;;6.70;99.90;;;;;;5009062;28;20213;-79
2020/12/06 11:23:45;;;;;;;60.25;40.45;;;6.70;99.90;;;;;;5027617;28;20205;-79
2020/12/06 11:26:14;;;;;;;52.45;39.45;;;6.70;99.90;;;;;;5023417;28;20209;-79
2020/12/06 11:28:41;;;;;;;63.55;41.38;;;6.70;99.90;;;;;;5017799;28;20197;-78
2020/12/06 11:31:09;;;;;;;56.25;39.65;;;6.80;99.90;;;;;;5011981;28;20671;-79
2020/12/06 11:33:35;;;;;;;62.88;42.20;;;6.80;99.90;;;;;;5025562;28;20209;-79
2020/12/06 11:36:02;;;;;;;61.08;42.20;;;6.80;99.90;;;;;;5033805;28;20260;-79
2020/12/06 11:38:28;;;;;;;73.50;45.55;;;6.80;99.90;;;;;;5026676;28;20271;-78
2020/12/06 11:40:55;;;;;;;58.83;39.65;;;6.80;99.90;;;;;;5027724;28;20244;-80
2020/12/06 11:43:22;;;;;;;66.93;43.47;;;6.90;99.90;;;;;;5023374;28;20206;-80
2020/12/06 11:45:49;;;;;;;66.93;45.03;;;7.00;99.90;;;;;;5028503;28;20267;-78
2020/12/06 11:48:15;;;;;;;57.92;39.38;;;7.00;99.90;;;;;;5014509;28;20217;-78
2020/12/06 11:50:42;;;;;;;61.67;42.35;;;7.00;99.90;;;;;;5021232;28;20241;-80
2020/12/06 11:53:08;;;;;;;64.00;43.03;;;7.00;99.90;;;;;;5021599;28;20195;-80
2020/12/06 11:55:35;;;;;;;68.25;44.22;;;7.10;99.90;;;;;;5029528;28;20214;-82
2020/12/06 11:58:01;;;;;;;62.03;40.80;;;7.10;99.90;;;;;;5036760;28;20193;-78
2020/12/06 12:00:29;;;;;;;62.58;39.95;;;7.10;99.90;;;;;;5039871;28;20185;-78
2020/12/06 12:02:56;;;;;;;64.07;40.80;;;7.20;99.90;;;;;;5040034;28;20191;-78
2020/12/06 12:05:22;;;;;;;57.35;40.40;;;7.20;99.90;;;;;;5033832;28;20230;-83
2020/12/06 12:07:49;;;;;;;62.88;40.05;;;7.30;99.90;;;;;;5030760;28;20201;-83
2020/12/06 12:10:16;;;;;;;66.90;40.15;;;7.40;99.90;;;;;;5031035;28;20216;-82
2020/12/06 12:12:43;;;;;;;55.72;37.42;;;7.40;99.90;;;;;;5032858;28;20259;-83
2020/12/06 12:15:10;;;;;;;57.78;40.47;;;7.40;99.90;;;;;;5032864;28;20253;-83
2020/12/06 12:17:38;;;;;;;70.68;44.20;;;7.40;99.90;;;;;;5020483;28;20211;-83
2020/12/06 12:20:06;;;;;;;53.65;37.70;;;7.40;99.90;;;;;;5041329;28;20186;-82
2020/12/06 12:22:34;;;;;;;61.78;39.85;;;7.40;99.90;;;;;;5037890;28;20215;-84
2020/12/06 12:25:00;;;;;;;69.50;42.17;;;7.50;99.90;;;;;;5033304;28;20218;-83
2020/12/06 12:27:27;;;;;;;56.35;40.17;;;7.40;99.90;;;;;;5032563;28;20207;-81
2020/12/06 12:29:54;;;;;;;63.60;41.90;;;7.50;99.90;;;;;;5034529;28;20245;-80
2020/12/06 12:32:22;;;;;;;57.28;39.92;;;7.50;99.90;;;;;;5035317;28;20641;-85
2020/12/06 12:34:51;;;;;;;63.47;41.47;;;7.50;99.90;;;;;;5033288;28;20238;-84
2020/12/06 12:37:19;;;;;;;67.88;42.40;;;7.50;99.90;;;;;;5026290;28;20225;-83
2020/12/06 12:42:31;;;;;;;67.88;44.20;;;7.50;99.90;;;;;;5012388;28;20195;-84
2020/12/06 12:44:58;;;;;;;64.72;41.83;;;7.50;99.90;;;;;;5012512;28;20240;-84
2020/12/06 12:47:25;;;;;;;61.15;41.35;;;7.40;99.90;;;;;;5016700;28;20225;-81
2020/12/06 12:49:54;;;;;;;66.30;41.42;;;7.60;99.90;;;;;;5017997;28;20230;-84
2020/12/06 12:52:23;;;;;;;68.20;43.30;;;7.60;99.90;;;;;;5020312;28;20212;-84
2020/12/06 12:54:50;;;;;;;69.43;43.33;;;7.60;99.90;;;;;;5031623;28;20230;-81
2020/12/06 12:57:17;;;;;;;68.60;43.65;;;7.60;99.90;;;;;;5029549;28;20194;-81
2020/12/06 12:59:43;;;;;;;69.97;44.33;;;7.70;99.90;;;;;;5032881;28;20233;-82
2020/12/06 13:02:10;;;;;;;55.10;39.03;;;7.60;99.90;;;;;;5030092;28;20203;-83
2020/12/06 13:04:36;;;;;;;67.03;44.00;;;7.70;99.90;;;;;;5017322;28;20705;-82
2020/12/06 13:07:05;;;;;;;65.70;42.70;;;7.70;99.90;;;;;;5045831;28;20225;-84
2020/12/06 13:09:32;;;;;;;68.22;45.53;;;7.70;99.90;;;;;;5050183;28;20266;-79
2020/12/06 13:12:01;;;;;;;66.25;42.75;;;7.70;99.90;;;;;;5051326;28;20210;-82
2020/12/06 13:14:29;;;;;;;67.78;44.10;;;7.70;99.90;;;;;;5049917;28;20223;-81
2020/12/06 13:16:55;;;;;;;59.05;40.65;;;7.60;99.90;;;;;;5049008;28;20256;-83
2020/12/06 13:19:22;;;;;;;60.75;40.65;;;7.60;99.90;;;;;;5050998;28;20256;-83
2020/12/06 13:21:48;;;;;;;59.03;41.05;;;7.50;99.90;;;;;;5048799;28;20216;-83
2020/12/06 13:24:16;;;;;;;57.38;40.08;;;7.50;99.90;;;;;;5048528;28;20221;-83